Time;durP1;ratioP1;P1;durP2;ratioP2;P2;SDS_P1;SDS_P2;PMS_P1;PMS_P2;Temp;Humidity;BMP_temperature;BMP_pressure;BME280_temperature;BME280_humidity;BME280_pressure;Samples;Min_cycle;Max_cycle;Signal;HPM_P1;HPM_P2
2023/01/06 00:01:05;;;;;;;2.75;0.98;;;;;16.60;101537.00;;;;5048041;28;20227;-78
2023/01/06 00:03:33;;;;;;;2.97;0.70;;;;;16.60;101541.00;;;;5049938;28;20211;-77
2023/01/06 00:06:01;;;;;;;3.15;0.75;;;;;16.60;101531.00;;;;5067852;28;20202;-78
2023/01/06 00:08:28;;;;;;;4.57;1.20;;;;;16.60;101540.00;;;;5067693;28;20699;-78
2023/01/06 00:10:55;;;;;;;1.15;0.80;;;;;16.60;101541.00;;;;5048327;28;20210;-77
2023/01/06 00:13:23;;;;;;;3.10;1.05;;;;;16.60;101538.00;;;;5047323;28;20200;-77
2023/01/06 00:15:50;;;;;;;3.47;1.45;;;;;16.60;101522.00;;;;5047893;28;20701;-77
2023/01/06 00:18:19;;;;;;;3.13;1.00;;;;;16.50;101530.00;;;;5047504;28;20215;-78
2023/01/06 00:20:46;;;;;;;2.60;1.33;;;;;16.50;101526.00;;;;5048113;28;20567;-77
2023/01/06 00:23:14;;;;;;;1.88;1.33;;;;;16.50;101524.00;;;;5048092;28;20273;-77
2023/01/06 00:25:48;;;;;;;2.83;1.35;;;;;16.60;101519.00;;;;5062925;28;20218;-77
2023/01/06 00:28:15;;;;;;;2.63;1.52;;;;;16.60;101517.00;;;;5051037;28;20202;-77
2023/01/06 00:30:43;;;;;;;5.38;1.83;;;;;16.60;101516.00;;;;5067549;28;20226;-77
2023/01/06 00:33:10;;;;;;;3.15;1.80;;;;;16.50;101504.00;;;;5068491;28;20547;-77
2023/01/06 00:35:39;;;;;;;3.22;1.60;;;;;16.50;101511.00;;;;5067349;28;20195;-77
2023/01/06 00:38:06;;;;;;;3.53;1.83;;;;;16.50;101516.00;;;;5067611;28;20199;-77
2023/01/06 00:40:33;;;;;;;3.50;1.77;;;;;16.50;101510.00;;;;5067549;28;20211;-77
2023/01/06 00:43:00;;;;;;;3.95;2.35;;;;;16.50;101521.00;;;;5062116;28;20211;-77
2023/01/06 00:45:28;;;;;;;4.72;1.80;;;;;16.50;101510.00;;;;5061012;28;20219;-77
2023/01/06 00:47:55;;;;;;;4.15;1.65;;;;;16.50;101515.00;;;;5049186;28;20208;-77
2023/01/06 00:50:22;;;;;;;2.28;1.88;;;;;16.50;101521.00;;;;5047645;28;20207;-78
2023/01/06 00:52:51;;;;;;;6.65;2.25;;;;;16.50;101523.00;;;;5048365;28;20592;-77
2023/01/06 00:55:18;;;;;;;2.25;1.50;;;;;16.50;101508.00;;;;5047840;28;20202;-77
2023/01/06 00:57:46;;;;;;;2.83;1.60;;;;;16.50;101518.00;;;;5047353;28;20200;-77
2023/01/06 01:00:13;;;;;;;2.95;1.50;;;;;16.50;101517.00;;;;5048832;28;20211;-77
2023/01/06 01:02:41;;;;;;;2.83;1.50;;;;;16.50;101523.00;;;;5051275;28;20223;-77
2023/01/06 01:05:09;;;;;;;1.60;1.20;;;;;16.50;101522.00;;;;5067689;28;20202;-77
2023/01/06 01:07:36;;;;;;;2.53;1.52;;;;;16.50;101518.00;;;;5071366;28;20578;-77
2023/01/06 01:10:05;;;;;;;1.95;1.13;;;;;16.50;101509.00;;;;5071182;28;20198;-77
2023/01/06 01:12:32;;;;;;;2.63;1.13;;;;;16.50;101511.00;;;;5071426;28;20692;-77
2023/01/06 01:15:00;;;;;;;1.63;1.10;;;;;16.50;101511.00;;;;5068196;28;20199;-77
2023/01/06 01:17:28;;;;;;;2.45;1.00;;;;;16.50;101508.00;;;;5063125;28;20210;-77
2023/01/06 01:19:58;;;;;;;1.85;1.40;;;;;16.50;101510.00;;;;5050599;28;20591;-77
2023/01/06 01:22:28;;;;;;;1.67;1.00;;;;;16.50;101509.00;;;;5051205;28;20262;-77
2023/01/06 01:24:55;;;;;;;3.75;1.38;;;;;16.50;101504.00;;;;5051109;28;20196;-78
2023/01/06 01:27:24;;;;;;;1.63;0.98;;;;;16.50;101503.00;;;;5051673;28;20215;-77
2023/01/06 01:29:51;;;;;;;3.63;1.33;;;;;16.50;101499.00;;;;5066720;28;20222;-77
2023/01/06 01:32:18;;;;;;;1.80;0.93;;;;;16.50;101490.00;;;;5070551;28;20191;-77
2023/01/06 01:34:45;;;;;;;1.70;0.90;;;;;16.50;101489.00;;;;5059717;28;20219;-77
2023/01/06 01:37:12;;;;;;;2.08;0.77;;;;;16.50;101485.00;;;;5051289;28;20202;-77
2023/01/06 01:39:40;;;;;;;2.72;1.10;;;;;16.50;101479.00;;;;5051433;28;20200;-78
2023/01/06 01:42:13;;;;;;;1.38;0.80;;;;;16.50;101481.00;;;;5051526;28;20231;-78
2023/01/06 01:44:57;;;;;;;2.55;1.20;;;;;16.40;101476.00;;;;5050993;28;20239;-77
2023/01/06 01:47:28;;;;;;;6.18;1.27;;;;;16.50;101482.00;;;;5049886;28;20199;-77
2023/01/06 01:49:59;;;;;;;3.42;1.30;;;;;16.50;101491.00;;;;5051283;28;20192;-77
2023/01/06 01:52:28;;;;;;;1.70;0.85;;;;;16.50;101492.00;;;;5051242;28;20195;-77
2023/01/06 01:54:56;;;;;;;3.10;0.88;;;;;16.50;101494.00;;;;5050168;28;20603;-77
2023/01/06 01:57:27;;;;;;;2.17;0.95;;;;;16.50;101493.00;;;;5050585;28;20227;-77
2023/01/06 01:59:57;;;;;;;1.02;0.82;;;;;16.50;101481.00;;;;5050843;28;20208;-77
2023/01/06 02:02:25;;;;;;;2.22;1.30;;;;;16.50;101483.00;;;;5050559;28;20235;-78
2023/01/06 02:04:54;;;;;;;3.85;0.90;;;;;16.50;101482.00;;;;5050285;28;20631;-77
2023/01/06 02:07:25;;;;;;;1.83;1.35;;;;;16.50;101484.00;;;;5050734;28;20227;-77
2023/01/06 02:10:00;;;;;;;2.10;1.00;;;;;16.50;101477.00;;;;5070069;28;20218;-77
2023/01/06 02:12:27;;;;;;;1.25;1.13;;;;;16.50;101484.00;;;;5068634;28;20217;-77
2023/01/06 02:14:55;;;;;;;3.92;1.30;;;;;16.50;101481.00;;;;5070556;28;20637;-77
2023/01/06 02:17:47;;;;;;;2.38;1.10;;;;;16.50;101469.00;;;;5069584;28;20665;-77
2023/01/06 02:20:33;;;;;;;3.55;1.08;;;;;16.40;101468.00;;;;5039140;28;20191;-77
2023/01/06 02:23:42;;;;;;;1.35;0.98;;;;;16.40;101462.00;;;;5064239;28;20223;-78
2023/01/06 02:26:50;;;;;;;3.00;1.20;;;;;16.40;101449.00;;;;5049091;28;20200;-77
2023/01/06 02:29:42;;;;;;;1.58;1.40;;;;;16.40;101449.00;;;;5049488;28;20215;-77
2023/01/06 02:32:23;;;;;;;1.02;1.00;;;;;16.40;101453.00;;;;5064126;28;20207;-77
2023/01/06 02:35:03;;;;;;;2.97;1.60;;;;;16.40;101458.00;;;;5068752;28;20202;-77
2023/01/06 02:37:47;;;;;;;2.33;1.50;;;;;16.40;101444.00;;;;5057212;28;20268;-77
2023/01/06 02:40:28;;;;;;;4.20;1.90;;;;;16.40;101447.00;;;;5049661;28;20206;-77
2023/01/06 02:43:07;;;;;;;1.70;1.55;;;;;16.40;101444.00;;;;5061293;28;20234;-77
2023/01/06 02:45:44;;;;;;;2.55;1.65;;;;;16.50;101432.00;;;;5070068;28;20229;-77
2023/01/06 02:48:23;;;;;;;2.08;1.58;;;;;16.40;101432.00;;;;5069526;28;20191;-77
2023/01/06 02:50:56;;;;;;;1.88;1.70;;;;;16.50;101413.00;;;;5069685;28;20199;-78
2023/01/06 02:53:30;;;;;;;2.15;1.60;;;;;16.50;101410.00;;;;5069903;28;20199;-77
2023/01/06 02:55:58;;;;;;;1.63;1.40;;;;;16.50;101407.00;;;;5069849;28;20199;-78
2023/01/06 02:58:31;;;;;;;2.35;1.52;;;;;16.40;101413.00;;;;5063372;28;20207;-77
2023/01/06 03:01:03;;;;;;;1.83;1.50;;;;;16.40;101407.00;;;;5049453;28;20199;-77
2023/01/06 03:03:35;;;;;;;1.98;1.58;;;;;16.40;101393.00;;;;5049452;28;20234;-78
2023/01/06 03:06:07;;;;;;;3.35;1.48;;;;;16.40;101400.00;;;;5048650;28;20203;-77
2023/01/06 03:08:35;;;;;;;1.05;0.93;;;;;16.40;101392.00;;;;5049807;28;20207;-77
2023/01/06 03:11:04;;;;;;;1.40;1.10;;;;;16.40;101382.00;;;;5048789;28;20211;-77
2023/01/06 03:13:39;;;;;;;1.35;1.25;;;;;16.40;101377.00;;;;5048371;28;20673;-77
2023/01/06 03:16:07;;;;;;;1.63;1.27;;;;;16.40;101378.00;;;;5048237;28;20203;-78
2023/01/06 03:18:37;;;;;;;1.75;1.17;;;;;16.40;101370.00;;;;5049089;28;20207;-77
2023/01/06 03:21:08;;;;;;;1.83;1.20;;;;;16.40;101367.00;;;;5049078;28;20202;-77
2023/01/06 03:23:38;;;;;;;2.20;1.15;;;;;16.40;101360.00;;;;5048285;28;20219;-79
2023/01/06 03:26:05;;;;;;;2.17;1.35;;;;;16.40;101362.00;;;;5047087;28;20203;-78
2023/01/06 03:28:33;;;;;;;3.13;0.98;;;;;16.40;101362.00;;;;5048969;28;20199;-77
2023/01/06 03:31:08;;;;;;;4.10;1.10;;;;;16.30;101351.00;;;;5048789;28;20216;-77
2023/01/06 03:33:47;;;;;;;2.17;0.95;;;;;16.30;101344.00;;;;5047660;28;20233;-79
2023/01/06 03:36:27;;;;;;;2.95;1.02;;;;;16.30;101345.00;;;;5048896;28;20214;-77
2023/01/06 03:39:01;;;;;;;2.15;0.95;;;;;16.40;101337.00;;;;5049259;28;20199;-78
2023/01/06 03:44:26;;;;;;;2.17;1.08;;;;;16.40;101335.00;;;;5048531;28;20238;-77
2023/01/06 03:47:02;;;;;;;2.72;1.10;;;;;16.40;101331.00;;;;5048986;28;20195;-79
2023/01/06 03:49:37;;;;;;;1.80;0.98;;;;;16.40;101328.00;;;;5048118;28;20195;-78
2023/01/06 03:52:12;;;;;;;2.22;1.20;;;;;16.30;101324.00;;;;5048555;28;20199;-77
2023/01/06 03:54:47;;;;;;;2.05;1.20;;;;;16.30;101318.00;;;;5048451;28;20195;-77
2023/01/06 03:57:18;;;;;;;4.00;1.10;;;;;16.30;101321.00;;;;5047909;28;20704;-77
2023/01/06 03:59:50;;;;;;;2.53;1.00;;;;;16.30;101315.00;;;;5048690;28;20211;-77
2023/01/06 04:02:20;;;;;;;1.90;1.00;;;;;16.30;101306.00;;;;5046777;28;20237;-77
2023/01/06 04:05:04;;;;;;;2.03;0.70;;;;;16.20;101309.00;;;;5067456;28;20218;-77
2023/01/06 04:07:32;;;;;;;1.13;0.73;;;;;16.40;101297.00;;;;5058910;28;20203;-77
2023/01/06 04:10:00;;;;;;;3.13;1.00;;;;;16.40;101297.00;;;;5048826;28;20227;-77
2023/01/06 04:12:39;;;;;;;2.35;1.02;;;;;16.40;101299.00;;;;5048151;28;20200;-77
2023/01/06 04:15:08;;;;;;;1.45;0.90;;;;;16.40;101303.00;;;;5048030;28;20203;-77
2023/01/06 04:17:35;;;;;;;3.05;0.90;;;;;16.40;101306.00;;;;5048241;28;20202;-77
2023/01/06 04:20:05;;;;;;;1.65;1.13;;;;;16.40;101302.00;;;;5048442;28;20696;-77
2023/01/06 04:22:32;;;;;;;4.72;1.20;;;;;16.40;101287.00;;;;5047472;28;20227;-77
2023/01/06 04:24:59;;;;;;;1.27;0.90;;;;;16.40;101290.00;;;;5054272;28;20195;-78
2023/01/06 04:27:26;;;;;;;1.30;0.70;;;;;16.40;101299.00;;;;5047902;28;20208;-78
2023/01/06 04:29:53;;;;;;;1.98;1.10;;;;;16.40;101289.00;;;;5047753;28;20216;-77
2023/01/06 04:32:21;;;;;;;2.17;0.73;;;;;16.40;101283.00;;;;5047901;28;20219;-77
2023/01/06 04:34:48;;;;;;;1.08;0.50;;;;;16.40;101282.00;;;;5047650;28;20211;-78
2023/01/06 04:37:17;;;;;;;2.85;0.85;;;;;16.40;101289.00;;;;5051086;28;20203;-78
2023/01/06 04:39:44;;;;;;;3.08;0.80;;;;;16.40;101279.00;;;;5051780;28;20199;-77
2023/01/06 04:42:11;;;;;;;1.17;0.65;;;;;16.50;101271.00;;;;5051454;28;20227;-77
2023/01/06 04:44:38;;;;;;;4.50;0.90;;;;;16.50;101282.00;;;;5052000;28;20227;-78
2023/01/06 04:47:06;;;;;;;0.80;0.68;;;;;16.40;101278.00;;;;5051601;28;20207;-78
2023/01/06 04:49:33;;;;;;;1.20;0.90;;;;;16.40;101278.00;;;;5051377;28;20202;-77
2023/01/06 04:52:00;;;;;;;0.93;0.50;;;;;16.40;101270.00;;;;5051629;28;20196;-78
2023/01/06 04:54:29;;;;;;;1.05;0.85;;;;;16.40;101262.00;;;;5050616;28;20211;-78
2023/01/06 04:56:56;;;;;;;1.67;1.10;;;;;16.40;101258.00;;;;5050459;28;20211;-77
2023/01/06 04:59:23;;;;;;;1.00;0.80;;;;;16.40;101241.00;;;;5054861;28;20561;-77
2023/01/06 05:01:50;;;;;;;1.88;1.10;;;;;16.40;101234.00;;;;5050754;28;20234;-77
2023/01/06 05:04:18;;;;;;;1.98;0.90;;;;;16.40;101242.00;;;;5050959;28;20195;-76
2023/01/06 05:06:45;;;;;;;1.88;0.70;;;;;16.40;101246.00;;;;5050805;28;20210;-77
2023/01/06 05:09:13;;;;;;;1.17;0.88;;;;;16.40;101244.00;;;;5051758;28;20207;-77
2023/01/06 05:11:41;;;;;;;1.15;0.88;;;;;16.40;101238.00;;;;5051439;28;20207;-77
2023/01/06 05:14:08;;;;;;;1.80;0.77;;;;;16.40;101239.00;;;;5070665;28;20199;-77
2023/01/06 05:16:37;;;;;;;1.13;1.02;;;;;16.40;101240.00;;;;5052493;28;20199;-77
2023/01/06 05:19:04;;;;;;;1.40;0.93;;;;;16.40;101242.00;;;;5050651;28;20198;-77
2023/01/06 05:21:31;;;;;;;1.98;1.00;;;;;16.40;101237.00;;;;5050942;28;20558;-78
2023/01/06 05:23:58;;;;;;;1.75;0.90;;;;;16.40;101241.00;;;;5051253;28;20227;-76
2023/01/06 05:26:27;;;;;;;2.15;1.02;;;;;16.40;101233.00;;;;5049790;28;20498;-77
2023/01/06 05:28:56;;;;;;;1.15;1.00;;;;;16.40;101230.00;;;;5050791;28;20199;-77
2023/01/06 05:31:25;;;;;;;3.33;1.00;;;;;16.40;101233.00;;;;5049686;28;20226;-78
2023/01/06 05:33:52;;;;;;;1.15;0.93;;;;;16.40;101224.00;;;;5069941;28;20206;-77
2023/01/06 05:36:19;;;;;;;4.00;0.90;;;;;16.40;101227.00;;;;5070511;28;20199;-77
2023/01/06 05:38:52;;;;;;;1.17;0.75;;;;;16.40;101228.00;;;;5069614;28;20198;-78
2023/01/06 05:41:19;;;;;;;0.82;0.68;;;;;16.40;101232.00;;;;5068802;28;20673;-78
2023/01/06 05:43:46;;;;;;;1.42;0.80;;;;;16.40;101235.00;;;;5057931;28;20230;-77
2023/01/06 05:46:15;;;;;;;2.42;1.02;;;;;16.40;101233.00;;;;5069387;28;20203;-77
2023/01/06 05:48:43;;;;;;;0.88;0.50;;;;;16.40;101244.00;;;;5066449;28;20203;-77
2023/01/06 05:51:12;;;;;;;1.52;0.60;;;;;16.40;101243.00;;;;5050377;28;20210;-77
2023/01/06 05:53:42;;;;;;;2.05;0.75;;;;;16.40;101242.00;;;;5050058;28;20192;-77
2023/01/06 05:56:11;;;;;;;3.05;1.02;;;;;16.40;101236.00;;;;5049412;28;20211;-77
2023/01/06 05:58:39;;;;;;;0.98;0.63;;;;;16.40;101235.00;;;;5058838;28;20203;-77
2023/01/06 06:01:14;;;;;;;1.40;0.65;;;;;16.30;101249.00;;;;5069844;28;20676;-77
2023/01/06 06:03:42;;;;;;;2.92;0.80;;;;;16.30;101240.00;;;;5049718;28;20230;-77
2023/01/06 06:06:10;;;;;;;0.70;0.50;;;;;16.30;101239.00;;;;5050825;28;20677;-77
2023/01/06 06:08:37;;;;;;;1.85;0.50;;;;;16.30;101237.00;;;;5049254;28;20199;-77
2023/01/06 06:11:05;;;;;;;0.82;0.60;;;;;16.30;101226.00;;;;5049693;28;20206;-76
2023/01/06 06:13:32;;;;;;;1.52;0.85;;;;;16.30;101232.00;;;;5049558;28;20684;-77
2023/01/06 06:16:07;;;;;;;1.92;0.70;;;;;16.20;101211.00;;;;5050106;28;20207;-77
2023/01/06 06:18:39;;;;;;;1.52;0.70;;;;;16.30;101219.00;;;;5068918;28;20655;-77
2023/01/06 06:21:08;;;;;;;1.92;0.90;;;;;16.30;101219.00;;;;5069837;28;20195;-77
2023/01/06 06:23:36;;;;;;;3.65;1.10;;;;;16.30;101232.00;;;;5061674;28;20607;-77
2023/01/06 06:26:03;;;;;;;0.82;0.60;;;;;16.30;101218.00;;;;5070338;28;20205;-77
2023/01/06 06:28:31;;;;;;;1.02;0.63;;;;;16.30;101226.00;;;;5059100;28;20207;-77
2023/01/06 06:31:05;;;;;;;1.00;0.60;;;;;16.20;101232.00;;;;5049931;28;20215;-77
2023/01/06 06:33:32;;;;;;;2.33;0.75;;;;;16.30;101229.00;;;;5051585;28;20203;-78
2023/01/06 06:36:00;;;;;;;0.73;0.70;;;;;16.30;101230.00;;;;5069977;28;20187;-77
2023/01/06 06:38:29;;;;;;;2.40;0.88;;;;;16.30;101235.00;;;;5053955;28;20200;-77
2023/01/06 06:40:56;;;;;;;0.80;0.57;;;;;16.30;101235.00;;;;5050212;28;20221;-76
2023/01/06 06:43:24;;;;;;;3.13;1.10;;;;;16.30;101232.00;;;;5049131;28;20227;-76
2023/01/06 06:45:51;;;;;;;1.33;0.80;;;;;16.30;101243.00;;;;5052325;28;20230;-77
2023/01/06 06:48:18;;;;;;;2.05;0.90;;;;;16.30;101232.00;;;;5067396;28;20214;-77
2023/01/06 06:50:45;;;;;;;2.20;1.02;;;;;16.30;101235.00;;;;5069919;28;20559;-76
2023/01/06 06:53:13;;;;;;;0.95;0.57;;;;;16.30;101229.00;;;;5069449;28;20195;-76
2023/01/06 06:55:41;;;;;;;1.13;0.68;;;;;16.30;101242.00;;;;5067823;28;20194;-77
2023/01/06 06:58:09;;;;;;;0.68;0.68;;;;;16.40;101254.00;;;;5057496;28;20204;-78
2023/01/06 07:00:36;;;;;;;2.05;1.05;;;;;16.30;101256.00;;;;5049717;28;20250;-77
2023/01/06 07:03:03;;;;;;;3.72;1.10;;;;;16.30;101253.00;;;;5049150;28;20242;-77
2023/01/06 07:05:31;;;;;;;2.55;0.90;;;;;16.30;101258.00;;;;5048083;28;20210;-78
2023/01/06 07:07:58;;;;;;;2.72;0.88;;;;;16.30;101257.00;;;;5060898;28;20202;-78
2023/01/06 07:10:25;;;;;;;1.25;1.08;;;;;16.30;101253.00;;;;5068307;28;20202;-78
2023/01/06 07:12:54;;;;;;;1.00;0.90;;;;;16.20;101270.00;;;;5068642;28;20649;-77
2023/01/06 07:15:21;;;;;;;1.50;1.10;;;;;16.30;101277.00;;;;5051919;28;20218;-78
2023/01/06 07:17:48;;;;;;;1.13;1.02;;;;;16.20;101273.00;;;;5055583;28;20202;-77
2023/01/06 07:20:16;;;;;;;1.08;0.98;;;;;16.20;101277.00;;;;5068798;28;20317;-78
2023/01/06 07:22:43;;;;;;;1.42;1.10;;;;;16.20;101288.00;;;;5069112;28;20190;-78
2023/01/06 07:25:10;;;;;;;1.75;1.30;;;;;16.20;101295.00;;;;5048428;28;20196;-78
2023/01/06 07:27:38;;;;;;;2.97;1.70;;;;;16.20;101289.00;;;;5048271;28;20211;-77
2023/01/06 07:30:09;;;;;;;1.40;1.30;;;;;16.20;101303.00;;;;5061540;28;20245;-78
2023/01/06 07:32:36;;;;;;;2.08;1.40;;;;;16.20;101302.00;;;;5048801;28;20203;-78
2023/01/06 07:35:04;;;;;;;1.20;1.10;;;;;16.20;101309.00;;;;5048730;28;20214;-77
2023/01/06 07:37:31;;;;;;;1.52;0.98;;;;;16.20;101310.00;;;;5048284;28;20619;-77
2023/01/06 07:39:58;;;;;;;1.15;0.95;;;;;16.20;101319.00;;;;5048327;28;20207;-78
2023/01/06 07:42:25;;;;;;;1.50;1.40;;;;;16.10;101319.00;;;;5047563;28;20199;-78
2023/01/06 07:44:53;;;;;;;1.38;1.27;;;;;16.10;101318.00;;;;5048228;28;20242;-77
2023/01/06 07:47:21;;;;;;;1.65;1.30;;;;;16.10;101315.00;;;;5047933;28;20614;-77
2023/01/06 07:49:48;;;;;;;1.30;1.20;;;;;16.10;101323.00;;;;5067513;28;20202;-78
2023/01/06 07:52:16;;;;;;;1.38;1.27;;;;;16.10;101323.00;;;;5050318;28;20207;-78
2023/01/06 07:54:43;;;;;;;1.35;1.23;;;;;16.10;101332.00;;;;5068093;28;20206;-78
2023/01/06 07:57:10;;;;;;;1.15;1.05;;;;;16.10;101342.00;;;;5068884;28;20199;-78
2023/01/06 07:59:37;;;;;;;1.20;0.93;;;;;16.10;101347.00;;;;5065908;28;20203;-77
2023/01/06 08:02:05;;;;;;;1.35;1.20;;;;;16.10;101352.00;;;;5062170;28;20200;-77
2023/01/06 08:04:35;;;;;;;1.95;1.00;;;;;16.00;101362.00;;;;5048290;28;20227;-77
2023/01/06 08:07:02;;;;;;;1.30;0.90;;;;;16.10;101367.00;;;;5065738;28;20211;-77
2023/01/06 08:09:30;;;;;;;1.30;0.98;;;;;16.00;101377.00;;;;5066839;28;20665;-77
2023/01/06 08:11:58;;;;;;;1.58;1.00;;;;;16.00;101386.00;;;;5063090;28;20211;-77
2023/01/06 08:14:25;;;;;;;1.10;1.00;;;;;16.00;101384.00;;;;5066590;28;21085;-77
2023/01/06 08:16:53;;;;;;;1.00;0.90;;;;;16.00;101382.00;;;;5068194;28;20213;-77
2023/01/06 08:19:20;;;;;;;1.00;0.90;;;;;16.00;101381.00;;;;5068137;28;20210;-77
2023/01/06 08:21:48;;;;;;;2.00;0.93;;;;;16.00;101394.00;;;;5064510;28;20206;-77
2023/01/06 08:24:16;;;;;;;2.75;0.80;;;;;16.00;101391.00;;;;5048404;28;20223;-76
2023/01/06 08:26:43;;;;;;;2.08;0.85;;;;;16.00;101391.00;;;;5048247;28;20653;-77
2023/01/06 08:29:10;;;;;;;1.15;0.90;;;;;16.00;101391.00;;;;5060166;28;20210;-76
2023/01/06 08:31:37;;;;;;;1.27;0.82;;;;;16.00;101401.00;;;;5050356;28;20560;-76
2023/01/06 08:34:04;;;;;;;4.68;0.80;;;;;15.90;101409.00;;;;5048289;28;20748;-77
2023/01/06 08:36:32;;;;;;;1.98;0.65;;;;;15.90;101412.00;;;;5047950;28;20203;-76
2023/01/06 08:39:00;;;;;;;3.53;0.95;;;;;15.90;101411.00;;;;5048136;28;20515;-76
2023/01/06 08:41:27;;;;;;;2.78;0.80;;;;;16.00;101418.00;;;;5048057;28;20210;-76
2023/01/06 08:43:55;;;;;;;3.53;0.80;;;;;15.90;101416.00;;;;5051121;28;20256;-76
2023/01/06 08:46:22;;;;;;;2.72;0.85;;;;;16.00;101417.00;;;;5068000;28;20214;-76
2023/01/06 08:48:50;;;;;;;1.45;0.90;;;;;16.00;101430.00;;;;5068924;28;20206;-76
2023/01/06 08:51:19;;;;;;;1.45;0.98;;;;;15.90;101439.00;;;;5067935;28;20199;-76
2023/01/06 08:53:47;;;;;;;3.10;1.10;;;;;15.90;101448.00;;;;5067812;28;20714;-76
2023/01/06 08:56:17;;;;;;;1.90;1.05;;;;;15.90;101457.00;;;;5061212;28;20579;-76
2023/01/06 08:58:45;;;;;;;2.50;0.90;;;;;15.90;101459.00;;;;5048317;28;20200;-76
2023/01/06 09:01:19;;;;;;;2.75;0.95;;;;;15.80;101457.00;;;;5062851;28;20199;-76
2023/01/06 09:03:46;;;;;;;2.50;0.80;;;;;15.90;101456.00;;;;5067485;28;20227;-77
2023/01/06 09:06:14;;;;;;;3.47;1.27;;;;;15.90;101453.00;;;;5067592;28;20210;-76
2023/01/06 09:08:41;;;;;;;2.38;1.05;;;;;15.90;101461.00;;;;5067426;28;20215;-76
2023/01/06 09:11:10;;;;;;;2.60;1.15;;;;;15.80;101458.00;;;;5067231;28;20532;-76
2023/01/06 09:13:39;;;;;;;1.70;0.95;;;;;15.80;101463.00;;;;5056604;28;20215;-76
2023/01/06 09:16:07;;;;;;;1.98;1.00;;;;;15.80;101458.00;;;;5051181;28;20202;-76
2023/01/06 09:18:34;;;;;;;1.35;0.80;;;;;15.80;101462.00;;;;5067156;28;20203;-76
2023/01/06 09:21:02;;;;;;;2.10;0.98;;;;;15.80;101466.00;;;;5067599;28;20199;-76
2023/01/06 09:23:30;;;;;;;1.58;0.90;;;;;15.80;101460.00;;;;5064266;28;20545;-76
2023/01/06 09:25:58;;;;;;;3.20;0.90;;;;;15.80;101468.00;;;;5050696;28;20199;-76
2023/01/06 09:28:26;;;;;;;4.47;1.20;;;;;15.80;101472.00;;;;5050448;28;20195;-76
2023/01/06 09:30:54;;;;;;;3.75;0.82;;;;;15.80;101477.00;;;;5052294;28;20223;-76
2023/01/06 09:33:21;;;;;;;3.33;1.20;;;;;15.80;101480.00;;;;5050174;28;20211;-76
2023/01/06 09:35:49;;;;;;;2.30;0.85;;;;;15.80;101484.00;;;;5068061;28;20566;-76
2023/01/06 09:38:16;;;;;;;2.17;0.95;;;;;15.80;101483.00;;;;5070103;28;20210;-76
2023/01/06 09:40:56;;;;;;;2.13;0.93;;;;;15.80;101484.00;;;;5070786;28;20199;-76
2023/01/06 09:43:36;;;;;;;1.35;0.73;;;;;15.80;101491.00;;;;5068353;28;20190;-76
2023/01/06 09:46:07;;;;;;;3.40;1.35;;;;;15.80;101494.00;;;;5070700;28;20206;-76
2023/01/06 09:48:40;;;;;;;1.80;1.05;;;;;15.80;101499.00;;;;5051232;28;20578;-76
2023/01/06 09:51:07;;;;;;;4.38;0.70;;;;;15.80;101504.00;;;;5050122;28;20211;-76
2023/01/06 09:53:39;;;;;;;6.63;1.17;;;;;15.90;101509.00;;;;5050467;28;20230;-76
2023/01/06 09:56:12;;;;;;;2.78;1.20;;;;;15.90;101526.00;;;;5049473;28;20604;-76
2023/01/06 09:58:45;;;;;;;4.03;0.70;;;;;15.90;101521.00;;;;5049897;28;20203;-76
2023/01/06 10:01:19;;;;;;;2.90;0.80;;;;;15.90;101518.00;;;;5049961;28;20674;-76
2023/01/06 10:03:47;;;;;;;2.25;0.75;;;;;15.90;101516.00;;;;5067083;28;20199;-76
2023/01/06 10:06:31;;;;;;;3.08;0.98;;;;;15.80;101522.00;;;;5050205;28;20203;-76
2023/01/06 10:09:09;;;;;;;3.45;0.70;;;;;15.90;101515.00;;;;5067614;28;20217;-76
2023/01/06 10:11:47;;;;;;;2.65;0.70;;;;;15.90;101532.00;;;;5069528;28;20186;-77
2023/01/06 10:14:22;;;;;;;4.95;1.00;;;;;16.00;101539.00;;;;5069888;28;20202;-76
2023/01/06 10:17:10;;;;;;;2.78;0.60;;;;;15.90;101545.00;;;;5069960;28;20199;-77
2023/01/06 10:19:53;;;;;;;5.20;1.45;;;;;16.00;101541.00;;;;5062042;28;20595;-76
2023/01/06 10:22:29;;;;;;;5.15;1.17;;;;;16.10;101535.00;;;;5055761;28;20195;-77
2023/01/06 10:25:04;;;;;;;3.92;0.60;;;;;16.10;101543.00;;;;5050137;28;20599;-77
2023/01/06 10:27:36;;;;;;;3.90;0.60;;;;;16.10;101536.00;;;;5049757;28;20210;-76
2023/01/06 10:30:06;;;;;;;4.50;1.05;;;;;16.20;101534.00;;;;5054908;28;20219;-76
2023/01/06 10:32:37;;;;;;;2.80;0.57;;;;;16.10;101534.00;;;;5068488;28;20207;-77
2023/01/06 10:35:13;;;;;;;2.35;0.50;;;;;16.10;101533.00;;;;5069218;28;20669;-78
2023/01/06 10:37:43;;;;;;;1.60;0.95;;;;;16.20;101532.00;;;;5069600;28;20202;-77
2023/01/06 10:40:21;;;;;;;2.78;0.43;;;;;16.20;101534.00;;;;5068501;28;20199;-77
2023/01/06 10:42:56;;;;;;;2.47;0.60;;;;;16.20;101535.00;;;;5069131;28;20199;-76
2023/01/06 10:45:26;;;;;;;2.30;0.45;;;;;16.20;101537.00;;;;5062461;28;20235;-77
2023/01/06 10:47:55;;;;;;;2.03;0.43;;;;;16.20;101525.00;;;;5051059;28;20649;-78
2023/01/06 10:50:23;;;;;;;1.95;0.77;;;;;16.30;101535.00;;;;5069372;28;20203;-77
2023/01/06 10:52:51;;;;;;;2.35;0.50;;;;;16.30;101532.00;;;;5069004;28;20210;-76
2023/01/06 10:55:39;;;;;;;2.80;0.52;;;;;16.20;101535.00;;;;5060697;28;20207;-76
2023/01/06 10:58:16;;;;;;;3.85;0.77;;;;;16.30;101538.00;;;;5048950;28;20558;-76
2023/01/06 11:00:58;;;;;;;1.63;0.35;;;;;16.20;101531.00;;;;5054439;28;20201;-76
2023/01/06 11:03:28;;;;;;;1.27;0.40;;;;;16.40;101533.00;;;;5051853;28;20565;-76
2023/01/06 11:06:08;;;;;;;1.48;0.65;;;;;16.30;101541.00;;;;5048580;28;20596;-76
2023/01/06 11:08:37;;;;;;;4.43;0.40;;;;;16.40;101538.00;;;;5048960;28;20203;-76
2023/01/06 11:11:12;;;;;;;2.42;0.32;;;;;16.40;101542.00;;;;5048528;28;20203;-76
2023/01/06 11:13:41;;;;;;;3.65;0.63;;;;;16.40;101543.00;;;;5066954;28;20245;-76
2023/01/06 11:16:19;;;;;;;2.22;0.38;;;;;16.40;101547.00;;;;5056132;28;20211;-76
2023/01/06 11:18:52;;;;;;;6.05;0.93;;;;;16.50;101549.00;;;;5049611;28;20253;-76
2023/01/06 11:21:20;;;;;;;4.80;0.68;;;;;16.60;101554.00;;;;5048153;28;20692;-76
2023/01/06 11:23:48;;;;;;;3.83;0.65;;;;;16.60;101555.00;;;;5048875;28;20211;-76
2023/01/06 11:26:18;;;;;;;1.52;0.65;;;;;16.60;101555.00;;;;5060383;28;20234;-76
2023/01/06 11:28:47;;;;;;;2.03;0.38;;;;;16.60;101542.00;;;;5065099;28;20199;-77
2023/01/06 11:31:21;;;;;;;1.55;0.30;;;;;16.60;101546.00;;;;5048304;28;20590;-76
2023/01/06 11:33:51;;;;;;;2.20;0.22;;;;;16.70;101550.00;;;;5048057;28;20701;-76
2023/01/06 11:36:21;;;;;;;4.18;0.70;;;;;16.70;101541.00;;;;5057317;28;20219;-76
2023/01/06 11:38:52;;;;;;;1.98;0.47;;;;;16.80;101541.00;;;;5068460;28;20202;-76
2023/01/06 11:41:26;;;;;;;4.45;0.40;;;;;16.80;101546.00;;;;5067433;28;20187;-76
2023/01/06 11:44:02;;;;;;;0.82;0.30;;;;;16.90;101534.00;;;;5068276;28;20202;-77
2023/01/06 11:46:29;;;;;;;1.60;0.20;;;;;17.00;101535.00;;;;5057813;28;20207;-76
2023/01/06 11:49:02;;;;;;;2.78;0.45;;;;;16.90;101539.00;;;;5059813;28;20581;-77
2023/01/06 11:51:48;;;;;;;3.60;0.68;;;;;17.00;101526.00;;;;5068026;28;20203;-77
2023/01/06 11:54:30;;;;;;;1.63;0.20;;;;;16.90;101528.00;;;;5067516;28;20680;-76
2023/01/06 11:56:59;;;;;;;2.80;0.50;;;;;17.00;101520.00;;;;5067589;28;20195;-77
2023/01/06 11:59:33;;;;;;;2.00;0.30;;;;;17.00;101519.00;;;;5065948;28;20621;-76
2023/01/06 12:02:01;;;;;;;3.83;0.32;;;;;17.10;101519.00;;;;5062265;28;20207;-76
2023/01/06 12:04:34;;;;;;;4.80;0.52;;;;;17.00;101517.00;;;;5064377;28;20226;-76
2023/01/06 12:07:13;;;;;;;2.40;0.57;;;;;17.10;101511.00;;;;5068045;28;20656;-77
2023/01/06 12:09:44;;;;;;;2.25;0.60;;;;;17.10;101515.00;;;;5056930;28;20207;-78
2023/01/06 12:12:16;;;;;;;3.33;0.73;;;;;17.20;101514.00;;;;5053700;28;20741;-77
2023/01/06 12:14:44;;;;;;;2.13;0.30;;;;;17.20;101508.00;;;;5047410;28;20195;-77
2023/01/06 12:17:16;;;;;;;1.52;0.43;;;;;17.30;101517.00;;;;5046266;28;20685;-76
2023/01/06 12:19:48;;;;;;;2.00;0.30;;;;;17.30;101519.00;;;;5048462;28;20549;-76
2023/01/06 12:22:22;;;;;;;7.68;0.40;;;;;17.30;101510.00;;;;5047619;28;20302;-76
2023/01/06 12:24:52;;;;;;;1.67;0.30;;;;;17.40;101509.00;;;;5059839;28;20702;-77
2023/01/06 12:27:30;;;;;;;1.95;0.30;;;;;17.40;101502.00;;;;5066207;28;20191;-76